Time;durP1;ratioP1;P1;durP2;ratioP2;P2;SDS_P1;SDS_P2;PMS_P1;PMS_P2;Temp;Humidity;BMP_temperature;BMP_pressure;BME280_temperature;BME280_humidity;BME280_pressure;Samples;Min_cycle;Max_cycle;Signal;HPM_P1;HPM_P2
2023/10/02 05:53:33;;;;;;;12.63;7.47;;;;;;;;;;10581027;28;20061;-87
2023/10/02 07:07:10;;;;;;;10.25;6.97;;;;;;;;;;10545040;28;20037;-80
2023/10/02 07:12:13;;;;;;;12.10;7.80;;;;;;;;;;10515828;28;20032;-80
2023/10/02 07:17:47;;;;;;;12.75;7.88;;;;;;;;;;10494122;28;20066;-84
2023/10/02 07:23:23;;;;;;;14.27;10.07;;;;;;;;;;10508251;28;20021;-85
2023/10/02 07:29:11;;;;;;;14.80;9.25;;;;;;;;;;10337629;28;20038;-84
2023/10/02 07:41:06;;;;;;;14.18;8.65;;;;;;;;;;10298232;28;20023;-85
2023/10/02 07:52:43;;;;;;;11.43;7.70;;;;;;;;;;10181516;29;20036;-86
2023/10/02 08:03:43;;;;;;;24.37;19.93;;;;;;;;;;10234830;28;20031;-86
2023/10/02 08:15:00;;;;;;;14.10;9.25;;;;;;;;;;10341250;28;20054;-85
2023/10/02 08:20:19;;;;;;;15.63;9.27;;;;;;;;;;10409875;28;20099;-85
2023/10/02 08:25:23;;;;;;;13.52;8.45;;;;;;;;;;10485798;28;20392;-85
2023/10/02 08:30:31;;;;;;;17.77;10.30;;;;;;;;;;10485318;28;20024;-86
2023/10/02 08:35:33;;;;;;;12.25;8.07;;;;;;;;;;10484535;28;20028;-86
2023/10/02 08:40:39;;;;;;;11.60;8.25;;;;;;;;;;10485422;28;20029;-87
2023/10/02 08:45:44;;;;;;;13.00;8.50;;;;;;;;;;10488199;28;20085;-86
2023/10/02 08:50:47;;;;;;;30.02;21.10;;;;;;;;;;10484584;28;20029;-86
2023/10/02 08:55:54;;;;;;;16.67;10.30;;;;;;;;;;10485127;28;20029;-86
2023/10/02 09:06:35;;;;;;;14.80;9.73;;;;;;;;;;10504147;28;20044;-85
2023/10/02 09:11:35;;;;;;;19.23;11.60;;;;;;;;;;10502110;28;20094;-85
2023/10/02 09:16:37;;;;;;;20.08;12.35;;;;;;;;;;10485608;28;20036;-85
2023/10/02 09:21:39;;;;;;;20.40;10.95;;;;;;;;;;10485332;28;20020;-87
2023/10/02 09:26:43;;;;;;;15.68;9.48;;;;;;;;;;10490065;28;20032;-85
2023/10/02 09:31:44;;;;;;;15.23;9.65;;;;;;;;;;10488333;28;20022;-86
2023/10/02 09:36:53;;;;;;;16.92;10.38;;;;;;;;;;10502684;28;20025;-85
2023/10/02 09:42:10;;;;;;;16.20;11.10;;;;;;;;;;10488627;28;20494;-85
2023/10/02 09:47:11;;;;;;;20.25;12.02;;;;;;;;;;10506298;28;20028;-85
2023/10/02 09:52:16;;;;;;;18.27;11.75;;;;;;;;;;10488679;28;20056;-86
2023/10/02 09:57:25;;;;;;;16.88;11.48;;;;;;;;;;10499599;28;20420;-85
2023/10/02 10:12:55;;;;;;;19.70;12.55;;;;;;;;;;10498260;28;20479;-85
2023/10/02 10:17:56;;;;;;;18.88;13.20;;;;;;;;;;10485127;28;20052;-85
2023/10/02 10:22:58;;;;;;;17.80;11.00;;;;;;;;;;10484251;28;20080;-83
2023/10/02 10:33:15;;;;;;;18.35;11.80;;;;;;;;;;10511186;28;20070;-85
2023/10/02 10:38:25;;;;;;;17.77;11.32;;;;;;;;;;10495127;28;20024;-84
2023/10/02 10:43:43;;;;;;;;;;;;;;;;;;10524727;28;20038;-85
2023/10/02 10:48:48;;;;;;;18.92;11.68;;;;;;;;;;10519392;28;20357;-85
2023/10/02 10:53:52;;;;;;;16.45;10.68;;;;;;;;;;10499099;28;20028;-85
2023/10/02 10:59:02;;;;;;;17.38;10.57;;;;;;;;;;10503423;28;20021;-85
2023/10/02 11:04:03;;;;;;;15.23;9.52;;;;;;;;;;10506928;28;20032;-85
2023/10/02 11:09:18;;;;;;;24.08;10.55;;;;;;;;;;10535087;28;20051;-84
2023/10/02 11:14:23;;;;;;;18.90;11.77;;;;;;;;;;10496593;28;20043;-85
2023/10/02 11:24:29;;;;;;;18.75;11.27;;;;;;;;;;10510719;28;20115;-84
2023/10/02 11:29:34;;;;;;;19.33;10.75;;;;;;;;;;10509295;28;20081;-84
2023/10/02 11:34:41;;;;;;;19.85;11.95;;;;;;;;;;10534800;28;20025;-84
2023/10/02 11:39:42;;;;;;;16.05;10.60;;;;;;;;;;10496561;28;20483;-85
2023/10/02 11:44:43;;;;;;;17.80;11.23;;;;;;;;;;10491277;28;20042;-85
2023/10/02 11:49:45;;;;;;;17.83;10.70;;;;;;;;;;10491933;28;20085;-85
2023/10/02 11:54:46;;;;;;;19.95;12.57;;;;;;;;;;10497571;28;20040;-86
2023/10/02 11:59:50;;;;;;;20.50;12.20;;;;;;;;;;10555775;22;20044;-82
2023/10/02 12:04:52;;;;;;;18.05;10.77;;;;;;;;;;10532750;28;20449;-81
2023/10/02 12:09:54;;;;;;;17.63;11.25;;;;;;;;;;10533863;28;20483;-81
2023/10/02 12:14:55;;;;;;;18.27;11.95;;;;;;;;;;10534786;28;20024;-81
2023/10/02 12:19:57;;;;;;;18.65;11.15;;;;;;;;;;10533328;28;20475;-82
2023/10/02 12:24:58;;;;;;;18.75;11.00;;;;;;;;;;10534256;28;20056;-81
2023/10/02 12:29:59;;;;;;;20.60;12.57;;;;;;;;;;10534090;28;20024;-81
2023/10/02 12:35:00;;;;;;;21.90;12.48;;;;;;;;;;10532425;28;20035;-81
2023/10/02 12:40:02;;;;;;;21.00;14.35;;;;;;;;;;10531063;28;20032;-82
2023/10/02 12:45:06;;;;;;;18.67;11.52;;;;;;;;;;10532423;28;20024;-81
2023/10/02 12:50:10;;;;;;;19.65;12.27;;;;;;;;;;10530910;28;20118;-82
2023/10/02 12:55:12;;;;;;;19.40;11.57;;;;;;;;;;10549311;28;20024;-82
2023/10/02 13:00:16;;;;;;;20.88;12.05;;;;;;;;;;10536263;28;20032;-83
2023/10/02 13:05:19;;;;;;;17.48;9.75;;;;;;;;;;10560221;28;20093;-82
2023/10/02 13:10:20;;;;;;;19.48;11.57;;;;;;;;;;10534492;28;20028;-82
2023/10/02 13:15:22;;;;;;;19.75;11.48;;;;;;;;;;10537165;28;20042;-83
2023/10/02 13:20:23;;;;;;;19.23;12.30;;;;;;;;;;10532309;28;20464;-83
2023/10/02 13:25:26;;;;;;;17.92;10.57;;;;;;;;;;10532466;28;20024;-83
2023/10/02 13:30:30;;;;;;;17.77;11.43;;;;;;;;;;10531895;28;20024;-83
2023/10/02 13:35:32;;;;;;;18.50;11.02;;;;;;;;;;10532973;28;20019;-82
2023/10/02 13:40:36;;;;;;;18.27;10.05;;;;;;;;;;10534468;28;20553;-82
2023/10/02 13:45:38;;;;;;;19.13;11.15;;;;;;;;;;10556378;28;20012;-82
2023/10/02 13:50:39;;;;;;;16.85;10.65;;;;;;;;;;10541132;28;20028;-82
2023/10/02 13:56:03;;;;;;;17.27;10.85;;;;;;;;;;10540729;28;20032;-84
2023/10/02 14:01:09;;;;;;;24.60;17.67;;;;;;;;;;10554057;28;20028;-85
2023/10/02 14:06:10;;;;;;;16.05;9.48;;;;;;;;;;10539317;28;20431;-84
2023/10/02 14:11:23;;;;;;;16.00;10.05;;;;;;;;;;10541933;28;20067;-83
2023/10/02 14:16:25;;;;;;;16.60;10.18;;;;;;;;;;10543123;28;20035;-84
2023/10/02 14:21:26;;;;;;;17.90;10.30;;;;;;;;;;10539293;28;20116;-84
2023/10/02 14:26:54;;;;;;;17.17;11.00;;;;;;;;;;10537305;28;20028;-85
2023/10/02 14:31:55;;;;;;;16.73;10.63;;;;;;;;;;10493275;28;20027;-85
2023/10/02 14:36:59;;;;;;;15.82;10.05;;;;;;;;;;10533951;28;20047;-85
2023/10/02 14:42:04;;;;;;;14.90;10.00;;;;;;;;;;10536032;28;20020;-85
2023/10/02 14:47:13;;;;;;;15.10;9.70;;;;;;;;;;10535841;28;20031;-85
2023/10/02 14:52:38;;;;;;;15.38;11.05;;;;;;;;;;10563122;28;20073;-85
2023/10/02 14:58:01;;;;;;;19.50;13.43;;;;;;;;;;10553984;28;20036;-85
2023/10/02 15:03:11;;;;;;;17.75;12.63;;;;;;;;;;10555928;28;20043;-85
2023/10/02 15:08:13;;;;;;;17.52;11.77;;;;;;;;;;10535798;28;20024;-85
2023/10/02 15:13:16;;;;;;;16.65;10.23;;;;;;;;;;10542711;28;20035;-85
2023/10/02 15:18:26;;;;;;;15.27;9.90;;;;;;;;;;10547747;28;20115;-85
2023/10/02 15:23:32;;;;;;;17.05;10.07;;;;;;;;;;10547871;28;20058;-85
2023/10/02 15:28:35;;;;;;;15.18;9.55;;;;;;;;;;10547823;28;20027;-84
2023/10/02 15:33:42;;;;;;;13.43;8.98;;;;;;;;;;10541592;28;20118;-84
2023/10/02 15:38:45;;;;;;;15.07;10.38;;;;;;;;;;10539423;28;20026;-84
2023/10/02 15:43:52;;;;;;;17.48;9.60;;;;;;;;;;10535614;28;20090;-84
2023/10/02 15:48:53;;;;;;;17.88;10.57;;;;;;;;;;10539187;28;20056;-84
2023/10/02 15:53:56;;;;;;;17.38;11.00;;;;;;;;;;10541711;28;20024;-83
2023/10/02 15:58:57;;;;;;;17.92;11.00;;;;;;;;;;10538287;28;20447;-84
2023/10/02 16:03:58;;;;;;;15.88;9.68;;;;;;;;;;10535816;28;20050;-84
2023/10/02 16:08:59;;;;;;;17.17;10.30;;;;;;;;;;10536507;28;20495;-83
2023/10/02 16:14:00;;;;;;;15.05;8.98;;;;;;;;;;10539132;28;20028;-84
2023/10/02 16:19:01;;;;;;;19.92;13.38;;;;;;;;;;10554665;28;20055;-84
2023/10/02 16:24:04;;;;;;;15.13;10.00;;;;;;;;;;10551338;28;20059;-80
2023/10/02 16:29:10;;;;;;;14.48;9.93;;;;;;;;;;10534855;28;20020;-86
2023/10/02 16:34:18;;;;;;;18.25;11.85;;;;;;;;;;10556841;28;20034;-87
2023/10/02 16:39:21;;;;;;;17.05;10.32;;;;;;;;;;10574462;28;20083;-87
2023/10/02 16:44:25;;;;;;;17.38;11.38;;;;;;;;;;10555218;28;20032;-86
2023/10/02 16:49:26;;;;;;;15.40;10.05;;;;;;;;;;10530783;28;20483;-86
2023/10/02 16:54:27;;;;;;;16.55;11.77;;;;;;;;;;10534531;28;20426;-87
2023/10/02 16:59:31;;;;;;;17.38;11.50;;;;;;;;;;10532207;28;20039;-87
2023/10/02 17:04:35;;;;;;;14.85;10.32;;;;;;;;;;10529321;28;20092;-87
2023/10/02 17:09:44;;;;;;;15.75;10.57;;;;;;;;;;10531574;28;20039;-87
2023/10/02 17:15:02;;;;;;;14.82;9.95;;;;;;;;;;10531654;28;20035;-86
2023/10/02 17:20:06;;;;;;;16.83;11.15;;;;;;;;;;10530045;28;20043;-86
2023/10/02 17:25:33;;;;;;;15.18;10.68;;;;;;;;;;10525284;28;20480;-87
2023/10/02 17:30:38;;;;;;;15.73;10.48;;;;;;;;;;10532190;28;20043;-87
2023/10/02 17:35:47;;;;;;;15.60;10.13;;;;;;;;;;10532307;28;20083;-87
2023/10/02 17:41:06;;;;;;;15.55;10.23;;;;;;;;;;10531430;28;20047;-88
2023/10/02 17:46:08;;;;;;;16.08;10.02;;;;;;;;;;10530116;28;20028;-88
2023/10/02 17:51:14;;;;;;;13.32;9.43;;;;;;;;;;10531030;28;20081;-87
2023/10/02 17:56:21;;;;;;;16.08;9.65;;;;;;;;;;10547606;28;20024;-87
2023/10/02 18:01:22;;;;;;;16.60;10.48;;;;;;;;;;10545281;22;20043;-81
2023/10/02 18:06:23;;;;;;;15.40;9.75;;;;;;;;;;10523387;28;20147;-81
2023/10/02 18:11:25;;;;;;;13.13;9.98;;;;;;;;;;10523325;28;20470;-81
2023/10/02 18:16:26;;;;;;;15.98;9.63;;;;;;;;;;10523461;28;20095;-81
2023/10/02 18:21:28;;;;;;;14.48;9.52;;;;;;;;;;10522896;28;20024;-81
2023/10/02 18:26:29;;;;;;;16.23;10.20;;;;;;;;;;10522683;28;20067;-81
2023/10/02 18:31:30;;;;;;;13.18;9.07;;;;;;;;;;10541035;28;20103;-81
2023/10/02 18:36:31;;;;;;;14.13;9.40;;;;;;;;;;10522266;28;20115;-82
2023/10/02 18:41:32;;;;;;;15.52;10.43;;;;;;;;;;10522844;28;20139;-82
2023/10/02 18:46:34;;;;;;;12.52;8.93;;;;;;;;;;10523521;28;20463;-82
2023/10/02 18:51:36;;;;;;;15.77;11.32;;;;;;;;;;10508066;28;20081;-82
2023/10/02 18:56:40;;;;;;;17.55;10.57;;;;;;;;;;10530805;28;20031;-82
2023/10/02 19:01:41;;;;;;;13.77;9.50;;;;;;;;;;10548870;28;20177;-81
2023/10/02 19:06:42;;;;;;;11.43;8.13;;;;;;;;;;10530622;28;20032;-81
2023/10/02 19:11:46;;;;;;;11.55;8.05;;;;;;;;;;10529651;28;20376;-81
